54.6°F
Current conditions from King Hill
Updated every 5 minutes
 
  Friday August 29, 2014

Station Historical Data
Daily Summary for January 23, 2011 Units:  Metric    English   Both
« Previous Day
Next Day »
Daily Weekly Monthly Yearly Custom
  High: Low: Average:
Temperature: -16.2 °C -25.9 °C -20 °C
Dew Point: -18 °C -30.7 °C -24.1 °C
Humidity: 92% 58% 70%
Wind Speed: 11.3km/h 0km/h 4.3km/h
Wind Gust: 25.7km/h - -
Wind- - SW
Pressure: 1027.7 hPa 1011.4 hPa -
Precipitation: 0 mm    
Historical Graphs
 
 
Tabular Data for January 23, 2011
Time Temperature Dew Point Pressure Wind Wind Speed Wind Gust Humidity Daily Rainfall
00:05 -16.6 °C -19.1 °C 1011.4 hPa Calm   3.2 km/h 81% 0 mm
00:09 -16.5 °C -18.8 °C 1011.4 hPa Calm     82% 0 mm
00:15 -16.6 °C -18.9 °C 1011.4 hPa Calm     82% 0 mm
00:19 -16.6 °C -19.1 °C 1011.4 hPa Calm     81% 0 mm
00:24 -16.7 °C -19.2 °C 1011.4 hPa Calm     81% 0 mm
00:30 -16.8 °C -19.3 °C 1011.4 hPa Calm     81% 0 mm
00:34 -16.9 °C -19.4 °C 1011.4 hPa Calm     81% 0 mm
00:39 -17 °C -19.5 °C 1011.4 hPa Calm     81% 0 mm
00:44 -17.1 °C -19.6 °C 1011.4 hPa Calm     81% 0 mm
00:49 -17 °C -18 °C 1011.4 hPa Calm     92% 0 mm
00:55 -16.9 °C -19.3 °C 1011.4 hPa Calm   3.2 km/h 82% 0 mm
00:59 -17.1 °C -19.6 °C 1011.4 hPa Calm   3.2 km/h 81% 0 mm
01:04 -17.1 °C -19.4 °C 1011.4 hPa Calm     82% 0 mm
01:10 -17.1 °C -19.6 °C 1011.4 hPa Calm     81% 0 mm
01:14 -17.1 °C -19.6 °C 1011.4 hPa Calm     81% 0 mm
01:19 -17.1 °C -19.4 °C 1011.4 hPa Calm     82% 0 mm
01:24 -17.1 °C -19.4 °C 1011.4 hPa Calm     82% 0 mm
01:30 -17.1 °C -19.4 °C 1011.4 hPa Calm     82% 0 mm
01:35 -17.1 °C -19.4 °C 1011.4 hPa Calm     82% 0 mm
01:39 -17.1 °C -19.4 °C 1011.4 hPa Calm     82% 0 mm
01:45 -17.1 °C -19.4 °C 1011.7 hPa Calm     82% 0 mm
01:49 -17 °C -19.3 °C 1011.7 hPa Calm     82% 0 mm
01:55 -16.9 °C -19.3 °C 1011.7 hPa Calm   1.6 km/h 82% 0 mm
01:59 -16.8 °C -19.2 °C 1011.7 hPa Calm   1.6 km/h 82% 0 mm
02:04 -16.8 °C -19.2 °C 1011.7 hPa Calm   1.6 km/h 82% 0 mm
02:09 -16.8 °C -19.3 °C 1011.7 hPa Calm   1.6 km/h 81% 0 mm
02:14 -16.8 °C -19.1 °C 1011.7 hPa Calm   4.8 km/h 82% 0 mm
02:19 -16.7 °C -19 °C 1011.7 hPa Calm   4.8 km/h 82% 0 mm
02:24 -16.6 °C -18.9 °C 1012.1 hPa Calm   4.8 km/h 82% 0 mm
02:30 -16.6 °C -18.9 °C 1012.1 hPa Calm   4.8 km/h 82% 0 mm
02:39 -16.3 °C -18.7 °C 1012.1 hPa Calm   4.8 km/h 82% 0 mm
02:44 -16.2 °C -18.6 °C 1012.1 hPa Calm   4.8 km/h 82% 0 mm
02:49 -16.2 °C -18.7 °C 1012.1 hPa Calm   3.2 km/h 81% 0 mm
02:54 -16.2 °C -18.7 °C 1012.1 hPa Calm   3.2 km/h 81% 0 mm
02:59 -16.2 °C -18.7 °C 1012.1 hPa Calm   3.2 km/h 81% 0 mm
03:04 -16.2 °C -18.7 °C 1012.1 hPa Calm   3.2 km/h 81% 0 mm
03:09 -16.2 °C -18.7 °C 1012.1 hPa Calm   1.6 km/h 81% 0 mm
03:14 -16.2 °C -18.7 °C 1012.1 hPa Calm     81% 0 mm
03:19 -16.3 °C -18.8 °C 1012.1 hPa Calm   1.6 km/h 81% 0 mm
03:24 -16.3 °C -18.8 °C 1012.1 hPa Calm   1.6 km/h 81% 0 mm
03:30 -16.3 °C -18.8 °C 1012.1 hPa Calm     81% 0 mm
03:34 -16.4 °C -18.9 °C 1012.1 hPa Calm     81% 0 mm
03:39 -16.4 °C -18.9 °C 1012.1 hPa Calm   1.6 km/h 81% 0 mm
03:44 -16.5 °C -19 °C 1012.1 hPa Calm   3.2 km/h 81% 0 mm
03:49 -16.6 °C -19.1 °C 1012.1 hPa Calm   3.2 km/h 81% 0 mm
03:54 -16.6 °C -19.1 °C 1012.1 hPa Calm     81% 0 mm
03:59 -16.7 °C -19.2 °C 1012.1 hPa Calm   1.6 km/h 81% 0 mm
04:04 -16.7 °C -19.2 °C 1012.1 hPa Calm   1.6 km/h 81% 0 mm
04:09 -16.7 °C -19.2 °C 1012.1 hPa Calm     81% 0 mm
04:14 -16.7 °C -19.2 °C 1012.1 hPa Calm     81% 0 mm
04:19 -16.7 °C -19.2 °C 1012.1 hPa Calm     81% 0 mm
04:24 -16.8 °C -19.3 °C 1012.1 hPa Calm   1.6 km/h 81% 0 mm
04:30 -16.8 °C -19.3 °C 1012.1 hPa Calm   1.6 km/h 81% 0 mm
04:35 -16.8 °C -19.3 °C 1012.1 hPa Calm     81% 0 mm
04:39 -16.8 °C -19.3 °C 1012.1 hPa Calm     81% 0 mm
04:44 -16.8 °C -19.3 °C 1012.1 hPa Calm     81% 0 mm
04:49 -16.9 °C -19.4 °C 1012.1 hPa Calm     81% 0 mm
04:54 -16.9 °C -19.4 °C 1012.1 hPa Calm     81% 0 mm
04:59 -17 °C -19.5 °C 1012.4 hPa Calm     81% 0 mm
05:04 -17.1 °C -19.7 °C 1012.4 hPa Calm     80% 0 mm
05:09 -17.2 °C -19.8 °C 1012.4 hPa Calm   3.2 km/h 80% 0 mm
05:14 -17.4 °C -20 °C 1012.4 hPa Calm   3.2 km/h 80% 0 mm
05:19 -17.5 °C -20.1 °C 1012.4 hPa Calm   3.2 km/h 80% 0 mm
05:24 -17.6 °C -20.2 °C 1012.4 hPa North 1.6 km/h 3.2 km/h 80% 0 mm
05:30 -17.7 °C -20.3 °C 1012.8 hPa Calm   4.8 km/h 80% 0 mm
05:34 -17.8 °C -20.4 °C 1012.8 hPa Calm   4.8 km/h 80% 0 mm
05:39 -17.8 °C -20.4 °C 1012.8 hPa Calm   4.8 km/h 80% 0 mm
05:44 -17.9 °C -20.6 °C 1012.8 hPa Calm   3.2 km/h 80% 0 mm
05:49 -18 °C -20.6 °C 1012.8 hPa Calm   1.6 km/h 80% 0 mm
05:54 -18.1 °C -20.7 °C 1013.1 hPa Calm   3.2 km/h 80% 0 mm
05:59 -18.2 °C -20.8 °C 1013.1 hPa Calm   3.2 km/h 80% 0 mm
06:04 -18.3 °C -21 °C 1013.1 hPa Calm   3.2 km/h 79% 0 mm
06:09 -18.4 °C -21.2 °C 1013.1 hPa NW 1.6 km/h 4.8 km/h 79% 0 mm
06:14 -18.6 °C -21.3 °C 1013.4 hPa Calm   4.8 km/h 79% 0 mm
06:19 -18.6 °C -21.2 °C 1013.4 hPa Calm   6.4 km/h 80% 0 mm
06:24 -18.7 °C -21.3 °C 1013.4 hPa NW 1.6 km/h 6.4 km/h 80% 0 mm
06:29 -18.7 °C -21.3 °C 1013.4 hPa Calm   3.2 km/h 80% 0 mm
06:35 -18.7 °C -21.3 °C 1013.4 hPa Calm   3.2 km/h 80% 0 mm
06:39 -18.8 °C -21.4 °C 1013.8 hPa Calm   1.6 km/h 80% 0 mm
06:44 -18.9 °C -21.6 °C 1013.8 hPa Calm     79% 0 mm
06:49 -19.1 °C -21.8 °C 1013.8 hPa Calm   3.2 km/h 79% 0 mm
06:54 -19.2 °C -21.9 °C 1014.1 hPa Calm   4.8 km/h 79% 0 mm
06:59 -19.3 °C -22 °C 1014.1 hPa Calm   4.8 km/h 79% 0 mm
07:04 -19.3 °C -22 °C 1014.1 hPa Calm   4.8 km/h 79% 0 mm
07:09 -19.3 °C -22 °C 1014.1 hPa Calm     79% 0 mm
07:14 -19.3 °C -22.1 °C 1014.4 hPa Calm     79% 0 mm
07:19 -19.3 °C -22.1 °C 1014.4 hPa Calm   1.6 km/h 79% 0 mm
07:24 -19.4 °C -22.2 °C 1014.4 hPa Calm   3.2 km/h 79% 0 mm
07:29 -19.6 °C -22.4 °C 1014.4 hPa Calm   3.2 km/h 78% 0 mm
07:35 -19.7 °C -22.5 °C 1014.8 hPa Calm     78% 0 mm
07:44 -19.9 °C -22.7 °C 1014.8 hPa Calm   3.2 km/h 78% 0 mm
07:49 -20 °C -22.8 °C 1014.8 hPa Calm   3.2 km/h 78% 0 mm
07:54 -20.1 °C -22.9 °C 1015.1 hPa Calm     78% 0 mm
07:59 -20.2 °C -23.1 °C 1015.1 hPa Calm     78% 0 mm
08:04 -20.3 °C -23.2 °C 1015.1 hPa Calm   3.2 km/h 78% 0 mm
08:09 -20.5 °C -23.5 °C 1015.5 hPa Calm   4.8 km/h 77% 0 mm
08:14 -20.7 °C -23.7 °C 1015.5 hPa NW 1.6 km/h 6.4 km/h 77% 0 mm
08:19 -21 °C -23.9 °C 1015.8 hPa Calm   6.4 km/h 77% 0 mm
08:24 -21.1 °C -24.1 °C 1015.8 hPa NW 1.6 km/h 6.4 km/h 77% 0 mm
08:30 -21.2 °C -24.2 °C 1015.8 hPa NW 1.6 km/h 6.4 km/h 77% 0 mm
08:39 -21.3 °C -24.2 °C 1015.8 hPa Calm   4.8 km/h 77% 0 mm
08:44 -21.3 °C -24.3 °C 1016.1 hPa Calm   4.8 km/h 77% 0 mm
08:49 -21.3 °C -24.2 °C 1016.1 hPa Calm   3.2 km/h 77% 0 mm
08:55 -21.1 °C -24.1 °C 1016.1 hPa Calm   3.2 km/h 77% 0 mm
08:59 -21 °C -23.9 °C 1016.1 hPa Calm   3.2 km/h 77% 0 mm
09:04 -20.9 °C -23.9 °C 1016.5 hPa NW 1.6 km/h 3.2 km/h 77% 0 mm
09:09 -20.9 °C -24.1 °C 1016.5 hPa Calm   3.2 km/h 76% 0 mm
09:14 -21.1 °C -24.2 °C 1016.5 hPa Calm   4.8 km/h 76% 0 mm
09:19 -21.2 °C -24.3 °C 1016.8 hPa Calm   4.8 km/h 76% 0 mm
09:24 -21.1 °C -24.2 °C 1016.8 hPa Calm   4.8 km/h 76% 0 mm
09:30 -20.9 °C -24.1 °C 1016.8 hPa NW 1.6 km/h 6.4 km/h 76% 0 mm
09:34 -20.9 °C -24.2 °C 1016.8 hPa Calm   6.4 km/h 75% 0 mm
09:39 -20.9 °C -24.2 °C 1017.2 hPa NW 1.6 km/h 9.7 km/h 75% 0 mm
09:44 -21 °C -24.3 °C 1017.2 hPa NW 1.6 km/h 9.7 km/h 75% 0 mm
09:49 -20.9 °C -24.2 °C 1017.2 hPa NW 1.6 km/h 6.4 km/h 75% 0 mm
09:55 -20.7 °C -24 °C 1017.2 hPa Calm   6.4 km/h 75% 0 mm
09:59 -20.4 °C -23.7 °C 1017.2 hPa Calm   6.4 km/h 75% 0 mm
10:04 -20.2 °C -23.6 °C 1017.5 hPa NW 3.2 km/h 9.7 km/h 74% 0 mm
10:09 -20.3 °C -23.9 °C 1017.5 hPa NW 6.4 km/h 11.3 km/h 73% 0 mm
10:14 -20.4 °C -23.9 °C 1017.8 hPa NW 1.6 km/h 11.3 km/h 74% 0 mm
10:19 -20.2 °C -23.8 °C 1017.8 hPa NNW 4.8 km/h 11.3 km/h 73% 0 mm
10:24 -20.2 °C -23.9 °C 1017.8 hPa NW 6.4 km/h 9.7 km/h 72% 0 mm
10:30 -20.5 °C -24.2 °C 1017.8 hPa NW 6.4 km/h 11.3 km/h 72% 0 mm
10:34 -20.3 °C -23.9 °C 1017.8 hPa NNW 1.6 km/h 11.3 km/h 73% 0 mm
10:39 -19.9 °C -23.6 °C 1018.2 hPa North 1.6 km/h 8 km/h 73% 0 mm
10:44 -19.7 °C -23.6 °C 1017.8 hPa NNW 3.2 km/h 6.4 km/h 71% 0 mm
10:49 -19.7 °C -23.8 °C 1017.8 hPa Calm   6.4 km/h 70% 0 mm
10:55 -19.6 °C -23.7 °C 1017.8 hPa NNW 1.6 km/h 6.4 km/h 70% 0 mm
10:59 -19.7 °C -23.9 °C 1018.2 hPa NW 4.8 km/h 9.7 km/h 69% 0 mm
11:04 -19.4 °C -23.7 °C 1017.8 hPa NNW 3.2 km/h 9.7 km/h 69% 0 mm
11:10 -19.1 °C -23.6 °C 1018.2 hPa NNW 3.2 km/h 6.4 km/h 68% 0 mm
11:14 -19.2 °C -24 °C 1018.2 hPa NW 3.2 km/h 9.7 km/h 66% 0 mm
11:20 -19.3 °C -24.1 °C 1018.2 hPa NW 4.8 km/h 11.3 km/h 66% 0 mm
11:25 -19.3 °C -24.1 °C 1018.2 hPa NNW 3.2 km/h 11.3 km/h 66% 0 mm
11:30 -19.4 °C -24.3 °C 1018.2 hPa NW 1.6 km/h 9.7 km/h 65% 0 mm
11:35 -19.1 °C -24.1 °C 1018.2 hPa NNE 3.2 km/h 14.5 km/h 65% 0 mm
11:40 -18.8 °C -23.9 °C 1018.2 hPa North 3.2 km/h 14.5 km/h 64% 0 mm
11:44 -18.7 °C -23.8 °C 1018.2 hPa North 3.2 km/h 11.3 km/h 64% 0 mm
11:50 -18.6 °C -23.9 °C 1018.2 hPa North 3.2 km/h 14.5 km/h 63% 0 mm
11:55 -18.4 °C -23.9 °C 1018.2 hPa NNW 4.8 km/h 14.5 km/h 62% 0 mm
12:00 -18.3 °C -23.8 °C 1018.2 hPa North 3.2 km/h 9.7 km/h 62% 0 mm
12:04 -18.3 °C -23.9 °C 1018.2 hPa North 3.2 km/h 12.9 km/h 61% 0 mm
12:09 -18.2 °C -23.9 °C 1018.2 hPa North 6.4 km/h 12.9 km/h 61% 0 mm
12:15 -18.2 °C -23.8 °C 1018.2 hPa North 3.2 km/h 12.9 km/h 61% 0 mm
12:20 -18.1 °C -24 °C 1018.2 hPa North 3.2 km/h 11.3 km/h 60% 0 mm
12:24 -18.2 °C -24.1 °C 1018.2 hPa North 3.2 km/h 9.7 km/h 60% 0 mm
12:30 -18.3 °C -24.3 °C 1018.2 hPa NNW 8 km/h 20.9 km/h 59% 0 mm
12:35 -18.8 °C -24.6 °C 1018.2 hPa North 4.8 km/h 20.9 km/h 60% 0 mm
12:39 -18.8 °C -24.6 °C 1018.2 hPa North 3.2 km/h 17.7 km/h 60% 0 mm
12:44 -18.7 °C -24.5 °C 1018.2 hPa NNE 4.8 km/h 12.9 km/h 60% 0 mm
12:50 -18.8 °C -25.1 °C 1018.5 hPa NNW 6.4 km/h 14.5 km/h 58% 0 mm
12:55 -18.9 °C -24.9 °C 1018.5 hPa North 3.2 km/h 14.5 km/h 59% 0 mm
12:59 -18.8 °C -24.8 °C 1018.5 hPa NNW 3.2 km/h 9.7 km/h 59% 0 mm
13:05 -18.7 °C -24.7 °C 1018.5 hPa North 4.8 km/h 12.9 km/h 59% 0 mm
13:09 -18.6 °C -24.6 °C 1018.5 hPa NNW 1.6 km/h 12.9 km/h 59% 0 mm
13:15 -18.5 °C -24.6 °C 1018.5 hPa North 6.4 km/h 14.5 km/h 59% 0 mm
13:19 -18.6 °C -24.6 °C 1018.5 hPa NNE 3.2 km/h 14.5 km/h 59% 0 mm
13:25 -18.4 °C -24.5 °C 1018.5 hPa NNE 8 km/h 17.7 km/h 59% 0 mm
13:30 -18.5 °C -24.6 °C 1018.5 hPa NNE 4.8 km/h 17.7 km/h 59% 0 mm
13:35 -18.4 °C -24.5 °C 1018.5 hPa NNW 3.2 km/h 14.5 km/h 59% 0 mm
13:40 -18.4 °C -24.4 °C 1018.5 hPa NNE 4.8 km/h 12.9 km/h 59% 0 mm
13:45 -18.3 °C -24.4 °C 1018.5 hPa NNW 4.8 km/h 12.9 km/h 59% 0 mm
13:50 -18.2 °C -24.3 °C 1018.8 hPa NNW 4.8 km/h 12.9 km/h 59% 0 mm
13:55 -18.4 °C -24.4 °C 1018.8 hPa NNW 4.8 km/h 17.7 km/h 59% 0 mm
14:05 -18.2 °C -24.2 °C 1018.8 hPa North 4.8 km/h 14.5 km/h 59% 0 mm
14:09 -18.1 °C -24.1 °C 1018.8 hPa North 4.8 km/h 11.3 km/h 59% 0 mm
14:29 -17.9 °C -24 °C 1019.2 hPa North 3.2 km/h 12.9 km/h 59% 0 mm
14:34 -17.8 °C -23.9 °C 1019.2 hPa North 6.4 km/h 22.5 km/h 59% 0 mm
14:39 -17.8 °C -23.7 °C 1019.2 hPa North 1.6 km/h 22.5 km/h 60% 0 mm
14:44 -17.9 °C -24 °C 1019.2 hPa NNE 8 km/h 16.1 km/h 59% 0 mm
14:49 -18.2 °C -24.1 °C 1019.5 hPa NNE 4.8 km/h 17.7 km/h 60% 0 mm
14:54 -18.2 °C -24.1 °C 1019.5 hPa NNE 4.8 km/h 17.7 km/h 60% 0 mm
14:59 -18.1 °C -23.7 °C 1019.5 hPa North 3.2 km/h 14.5 km/h 61% 0 mm
15:04 -18.1 °C -23.9 °C 1019.5 hPa North 4.8 km/h 11.3 km/h 60% 0 mm
15:09 -18.1 °C -24 °C 1019.9 hPa NNE 3.2 km/h 12.9 km/h 60% 0 mm
15:14 -18.2 °C -24.1 °C 1019.9 hPa North 3.2 km/h 12.9 km/h 60% 0 mm
15:19 -18.2 °C -23.9 °C 1019.9 hPa NNW 4.8 km/h 12.9 km/h 61% 0 mm
15:24 -18.4 °C -24.1 °C 1020.2 hPa NNE 6.4 km/h 19.3 km/h 61% 0 mm
15:29 -18.5 °C -24 °C 1020.2 hPa NNE 4.8 km/h 19.3 km/h 62% 0 mm
15:34 -18.6 °C -24.1 °C 1020.2 hPa Calm   16.1 km/h 62% 0 mm
15:39 -18.7 °C -24.2 °C 1020.2 hPa NNE 3.2 km/h 16.1 km/h 62% 0 mm
15:44 -18.8 °C -24.3 °C 1020.5 hPa NNE 3.2 km/h 12.9 km/h 62% 0 mm
15:49 -19 °C -24.4 °C 1020.5 hPa NNE 3.2 km/h 14.5 km/h 62% 0 mm
15:54 -19.1 °C -24.4 °C 1020.5 hPa Calm   14.5 km/h 63% 0 mm
15:59 -19.2 °C -24.5 °C 1020.5 hPa ENE 4.8 km/h 17.7 km/h 63% 0 mm
16:04 -19.3 °C -24.6 °C 1020.5 hPa NE 4.8 km/h 17.7 km/h 63% 0 mm
16:09 -19.5 °C -24.6 °C 1020.9 hPa North 1.6 km/h 12.9 km/h 64% 0 mm
16:14 -19.7 °C -24.8 °C 1020.9 hPa North 3.2 km/h 12.9 km/h 64% 0 mm
16:19 -19.8 °C -24.9 °C 1020.9 hPa NNE 1.6 km/h 12.9 km/h 64% 0 mm
16:24 -20 °C -24.9 °C 1021.2 hPa NE 1.6 km/h 14.5 km/h 65% 0 mm
16:29 -20.2 °C -25.1 °C 1021.2 hPa NE 1.6 km/h 14.5 km/h 65% 0 mm
16:35 -20.4 °C -25.2 °C 1021.2 hPa NNE 1.6 km/h 12.9 km/h 66% 0 mm
16:39 -20.7 °C -25.4 °C 1021.2 hPa North 1.6 km/h 12.9 km/h 66% 0 mm
16:44 -20.9 °C -25.4 °C 1021.6 hPa North 3.2 km/h 11.3 km/h 67% 0 mm
16:49 -21 °C -25.3 °C 1021.6 hPa NNE 1.6 km/h 11.3 km/h 68% 0 mm
16:54 -21.2 °C -25.5 °C 1021.9 hPa NE 3.2 km/h 12.9 km/h 68% 0 mm
16:59 -21.3 °C -25.4 °C 1021.9 hPa NNE 1.6 km/h 12.9 km/h 69% 0 mm
17:04 -21.4 °C -25.8 °C 1021.9 hPa Calm   8 km/h 68% 0 mm
17:09 -21.7 °C -26.1 °C 1022.2 hPa Calm   8 km/h 68% 0 mm
17:14 -21.8 °C -26 °C 1022.2 hPa NNE 3.2 km/h 11.3 km/h 69% 0 mm
17:19 -21.8 °C -26 °C 1022.2 hPa NNE 3.2 km/h 11.3 km/h 69% 0 mm
17:24 -21.9 °C -26.2 °C 1022.2 hPa NNE 3.2 km/h 12.9 km/h 68% 0 mm
17:30 -21.9 °C -26.4 °C 1022.6 hPa Calm   16.1 km/h 67% 0 mm
17:34 -22 °C -24.9 °C 1022.6 hPa Calm   16.1 km/h 77% 0 mm
17:39 -22.2 °C -26.8 °C 1022.6 hPa Calm   6.4 km/h 66% 0 mm
17:44 -22.3 °C -26.9 °C 1022.9 hPa NNE 3.2 km/h 19.3 km/h 66% 0 mm
17:49 -22.3 °C -26.9 °C 1022.9 hPa North 3.2 km/h 19.3 km/h 66% 0 mm
17:55 -22.4 °C -27 °C 1022.9 hPa North 1.6 km/h 12.9 km/h 66% 0 mm
17:59 -22.4 °C -27.2 °C 1022.9 hPa Calm   12.9 km/h 65% 0 mm
18:04 -22.6 °C -27.3 °C 1023.2 hPa Calm   6.4 km/h 65% 0 mm
18:09 -22.6 °C -27.6 °C 1023.2 hPa NNW 3.2 km/h 17.7 km/h 64% 0 mm
18:14 -22.7 °C -27.6 °C 1023.2 hPa North 3.2 km/h 17.7 km/h 64% 0 mm
18:19 -22.6 °C -27.5 °C 1023.6 hPa NNW 4.8 km/h 19.3 km/h 64% 0 mm
18:24 -22.3 °C -27.4 °C 1023.6 hPa NNW 6.4 km/h 19.3 km/h 63% 0 mm
18:29 -22.2 °C -27.5 °C 1023.6 hPa NNW 4.8 km/h 17.7 km/h 62% 0 mm
18:34 -22.1 °C -27.4 °C 1023.6 hPa NW 11.3 km/h 22.5 km/h 62% 0 mm
18:39 -22.2 °C -27.7 °C 1023.6 hPa NNW 9.7 km/h 22.5 km/h 61% 0 mm
18:44 -22.2 °C -27.7 °C 1023.9 hPa NNW 4.8 km/h 19.3 km/h 61% 0 mm
18:49 -22.3 °C -27.8 °C 1023.9 hPa NNW 4.8 km/h 19.3 km/h 61% 0 mm
18:54 -22.4 °C -27.7 °C 1023.9 hPa NNW 8 km/h 17.7 km/h 62% 0 mm
18:59 -22.5 °C -27.8 °C 1024.3 hPa NNW 4.8 km/h 17.7 km/h 62% 0 mm
19:04 -22.6 °C -27.8 °C 1024.3 hPa NNW 4.8 km/h 16.1 km/h 62% 0 mm
19:09 -22.6 °C -27.7 °C 1024.3 hPa NW 3.2 km/h 16.1 km/h 63% 0 mm
19:14 -22.6 °C -27.7 °C 1024.6 hPa NW 9.7 km/h 20.9 km/h 63% 0 mm
19:19 -22.7 °C -27.8 °C 1024.6 hPa NW 8 km/h 22.5 km/h 63% 0 mm
19:24 -22.8 °C -27.9 °C 1024.6 hPa NNW 4.8 km/h 22.5 km/h 63% 0 mm
19:29 -22.8 °C -27.9 °C 1024.9 hPa NW 6.4 km/h 20.9 km/h 63% 0 mm
19:34 -22.9 °C -28 °C 1024.9 hPa NNW 3.2 km/h 20.9 km/h 63% 0 mm
19:39 -22.9 °C -27.9 °C 1024.9 hPa NW 11.3 km/h 20.9 km/h 64% 0 mm
19:44 -22.9 °C -28.1 °C 1024.9 hPa NW 6.4 km/h 20.9 km/h 63% 0 mm
19:49 -22.9 °C -28.1 °C 1024.9 hPa NW 6.4 km/h 20.9 km/h 63% 0 mm
19:55 -23 °C -26.7 °C 1024.9 hPa NW 6.4 km/h 20.9 km/h 72% 0 mm
20:04 -23 °C -28.3 °C 1025.3 hPa NW 9.7 km/h 24.1 km/h 62% 0 mm
20:09 -22.9 °C -28.2 °C 1025.3 hPa NW 8 km/h 24.1 km/h 62% 0 mm
20:14 -23.1 °C -28.3 °C 1025.3 hPa NW 4.8 km/h 16.1 km/h 62% 0 mm
20:19 -23.2 °C -28.5 °C 1025.3 hPa NW 9.7 km/h 17.7 km/h 62% 0 mm
20:24 -23.3 °C -28.6 °C 1025.6 hPa NNW 6.4 km/h 19.3 km/h 62% 0 mm
20:29 -23.3 °C -28.6 °C 1025.6 hPa NW 11.3 km/h 20.9 km/h 62% 0 mm
20:34 -23.3 °C -28.7 °C 1025.6 hPa NW 8 km/h 20.9 km/h 61% 0 mm
20:39 -23.3 °C -28.8 °C 1025.6 hPa NW 8 km/h 19.3 km/h 61% 0 mm
20:44 -23.3 °C -28.9 °C 1025.6 hPa NW 9.7 km/h 25.7 km/h 60% 0 mm
20:49 -23.3 °C -28.9 °C 1026 hPa NW 6.4 km/h 25.7 km/h 60% 0 mm
20:55 -23.4 °C -29.1 °C 1026 hPa NW 6.4 km/h 14.5 km/h 60% 0 mm
20:59 -23.4 °C -29.1 °C 1026 hPa NW 8 km/h 19.3 km/h 60% 0 mm
21:04 -23.6 °C -29.2 °C 1026 hPa WNW 1.6 km/h 19.3 km/h 60% 0 mm
21:09 -23.6 °C -29.2 °C 1026 hPa NW 4.8 km/h 20.9 km/h 60% 0 mm
21:14 -23.6 °C -29.2 °C 1026 hPa NW 8 km/h 20.9 km/h 60% 0 mm
21:19 -23.7 °C -29.3 °C 1026 hPa NNW 3.2 km/h 17.7 km/h 60% 0 mm
21:24 -23.7 °C -29.3 °C 1026 hPa NW 1.6 km/h 16.1 km/h 60% 0 mm
21:29 -23.7 °C -29.3 °C 1026.3 hPa NW 1.6 km/h 17.7 km/h 60% 0 mm
21:34 -23.9 °C -29.4 °C 1026.3 hPa NNW 3.2 km/h 17.7 km/h 60% 0 mm
21:39 -23.9 °C -29.5 °C 1026.3 hPa WNW 8 km/h 16.1 km/h 60% 0 mm
21:44 -24.1 °C -29.6 °C 1026.3 hPa Calm   16.1 km/h 60% 0 mm
21:49 -24.3 °C -29.7 °C 1026.3 hPa Calm   3.2 km/h 61% 0 mm
21:55 -24.4 °C -29.8 °C 1026.3 hPa NW 3.2 km/h 8 km/h 61% 0 mm
21:59 -24.5 °C -29.9 °C 1026.3 hPa Calm   8 km/h 61% 0 mm
22:04 -24.6 °C -29.8 °C 1026.3 hPa NW 4.8 km/h 16.1 km/h 62% 0 mm
22:09 -24.5 °C -29.7 °C 1026.6 hPa NW 4.8 km/h 16.1 km/h 62% 0 mm
22:14 -24.5 °C -29.9 °C 1026.6 hPa NW 4.8 km/h 14.5 km/h 61% 0 mm
22:19 -24.5 °C -29.7 °C 1026.6 hPa NW 1.6 km/h 12.9 km/h 62% 0 mm
22:24 -24.6 °C -29.9 °C 1026.6 hPa WNW 1.6 km/h 9.7 km/h 61% 0 mm
22:29 -24.6 °C -29.8 °C 1026.6 hPa NW 1.6 km/h 11.3 km/h 62% 0 mm
22:35 -24.7 °C -29.9 °C 1026.6 hPa Calm   11.3 km/h 62% 0 mm
22:44 -24.9 °C -30.1 °C 1027 hPa NW 3.2 km/h 9.7 km/h 62% 0 mm
22:49 -24.9 °C -29.9 °C 1027 hPa NW 1.6 km/h 11.3 km/h 63% 0 mm
22:54 -24.9 °C -30.1 °C 1027 hPa Calm   11.3 km/h 62% 0 mm
22:59 -25.1 °C -30.2 °C 1027 hPa Calm   8 km/h 62% 0 mm
23:04 -25.2 °C -30.3 °C 1027 hPa Calm   3.2 km/h 62% 0 mm
23:09 -25.3 °C -30.3 °C 1027 hPa Calm   3.2 km/h 63% 0 mm
23:14 -25.7 °C -30.7 °C 1027.3 hPa Calm   3.2 km/h 63% 0 mm
23:19 -25.7 °C -30.6 °C 1027.3 hPa Calm     64% 0 mm
23:24 -25.8 °C -30.6 °C 1027.3 hPa Calm   3.2 km/h 64% 0 mm
23:29 -25.8 °C -30.5 °C 1027.3 hPa Calm   3.2 km/h 65% 0 mm
23:34 -25.8 °C -30.5 °C 1027.7 hPa WNW 1.6 km/h 6.4 km/h 65% 0 mm
23:39 -25.9 °C -30.6 °C 1027.7 hPa Calm   11.3 km/h 65% 0 mm
23:44 -25.9 °C -30.6 °C 1027.7 hPa Calm   11.3 km/h 65% 0 mm
23:49 -25.8 °C -30.5 °C 1027.7 hPa Calm   4.8 km/h 65% 0 mm
23:54 -25.7 °C -30.4 °C 1027.7 hPa Calm   4.8 km/h 65% 0 mm
23:59 -25.7 °C -30.3 °C 1027.7 hPa Calm   4.8 km/h 65% 0 mm
Westford Weather
Compliments of Weather Underground

 
 
Current Radar Loop:

Copyright © WestfordWeather.net 2007-2014. All rights reserved.